createdAt,value
2019-03-29T00:02:38.910Z,35.67
2019-03-29T00:05:29.665Z,35.00
2019-03-29T00:08:19.978Z,35.03
2019-03-29T00:11:10.355Z,31.77
2019-03-29T00:14:00.665Z,32.93
2019-03-29T00:16:51.300Z,33.73
2019-03-29T00:19:43.014Z,37.37
2019-03-29T00:22:33.344Z,35.00
2019-03-29T00:25:23.642Z,33.67
2019-03-29T00:27:54.569Z,36.90
2019-03-29T00:30:44.886Z,35.83
2019-03-29T00:33:35.227Z,33.43
2019-03-29T00:36:25.991Z,36.93
2019-03-29T00:39:04.023Z,37.57
2019-03-29T00:41:54.350Z,38.83
2019-03-29T00:44:44.702Z,40.10
2019-03-29T00:47:34.998Z,37.87
2019-03-29T00:50:25.339Z,40.50
2019-03-29T00:53:15.649Z,35.50
2019-03-29T00:56:05.999Z,39.87
2019-03-29T00:58:56.296Z,41.80
2019-03-29T01:01:46.670Z,40.43
2019-03-29T01:04:36.970Z,41.93
2019-03-29T01:07:27.301Z,41.20
2019-03-29T01:09:59.862Z,41.90
2019-03-29T01:12:30.788Z,42.97
2019-03-29T01:15:21.091Z,40.33
2019-03-29T01:18:11.929Z,49.27
2019-03-29T01:21:03.476Z,42.60
2019-03-29T01:23:53.880Z,40.60
2019-03-29T01:26:27.156Z,44.97
2019-03-29T01:29:10.039Z,40.87
2019-03-29T01:32:00.354Z,41.73
2019-03-29T01:34:50.810Z,41.03
2019-03-29T01:37:41.125Z,44.63
2019-03-29T01:40:31.469Z,41.57
2019-03-29T01:43:21.783Z,40.77
2019-03-29T01:46:12.262Z,38.00
2019-03-29T01:49:02.515Z,43.57
2019-03-29T01:51:53.927Z,42.00
2019-03-29T01:54:37.217Z,41.97
2019-03-29T01:57:27.604Z,40.00
2019-03-29T02:00:39.154Z,37.67
2019-03-29T02:03:10.157Z,41.30
2019-03-29T02:06:00.507Z,44.50
2019-03-29T02:08:50.863Z,38.27
2019-03-29T02:11:41.322Z,40.00
2019-03-29T02:14:31.608Z,37.80
2019-03-29T02:17:22.235Z,40.30
2019-03-29T02:20:12.555Z,37.23
2019-03-29T02:23:03.969Z,37.30
2019-03-29T02:25:54.893Z,39.57
2019-03-29T02:28:45.259Z,38.40
2019-03-29T02:31:35.613Z,46.27
2019-03-29T02:34:12.386Z,37.10
2019-03-29T02:37:02.823Z,36.47
2019-03-29T02:39:54.711Z,41.00
2019-03-29T02:42:37.893Z,40.93
2019-03-29T02:45:30.468Z,41.50
2019-03-29T02:48:20.729Z,41.37
2019-03-29T02:51:11.050Z,41.43
2019-03-29T02:54:01.369Z,41.53
2019-03-29T02:56:51.694Z,42.97
2019-03-29T02:59:42.015Z,35.47
2019-03-29T03:02:32.366Z,40.50
2019-03-29T03:05:22.735Z,42.63
2019-03-29T03:08:13.061Z,38.53
2019-03-29T03:13:46.244Z,40.17
2019-03-29T03:16:36.574Z,40.50
2019-03-29T03:19:26.913Z,42.97
2019-03-29T03:22:17.212Z,36.73
2019-03-29T03:25:47.143Z,39.60
2019-03-29T03:28:37.451Z,43.00
2019-03-29T03:31:28.139Z,41.10
2019-03-29T03:34:18.465Z,37.47
2019-03-29T03:36:49.434Z,38.50
2019-03-29T03:39:39.859Z,36.97
2019-03-29T03:42:30.253Z,38.30
2019-03-29T03:45:20.576Z,39.00
2019-03-29T03:48:10.919Z,38.10
2019-03-29T03:51:01.335Z,37.00
2019-03-29T03:53:51.795Z,40.67
2019-03-29T04:00:03.937Z,43.03
2019-03-29T04:02:54.322Z,45.10
2019-03-29T04:05:26.879Z,39.07
2019-03-29T04:08:17.254Z,41.23
2019-03-29T04:11:07.566Z,43.87
2019-03-29T04:13:57.920Z,45.40
2019-03-29T04:16:48.230Z,43.90
2019-03-29T04:19:38.567Z,42.73
2019-03-29T04:22:28.881Z,48.73
2019-03-29T04:25:19.233Z,50.10
2019-03-29T04:31:18.869Z,39.10
2019-03-29T04:34:09.192Z,41.97
2019-03-29T04:36:59.532Z,42.17
2019-03-29T04:40:06.297Z,49.67
2019-03-29T04:42:27.863Z,48.50
2019-03-29T04:45:18.182Z,45.63
2019-03-29T04:48:08.527Z,45.73
2019-03-29T04:50:58.837Z,45.43
2019-03-29T04:53:49.158Z,42.33
2019-03-29T04:56:40.405Z,45.60
2019-03-29T04:59:30.729Z,47.47
2019-03-29T05:02:21.042Z,46.50
2019-03-29T05:05:11.419Z,45.57
2019-03-29T05:08:01.729Z,48.20
2019-03-29T05:10:52.118Z,52.33
2019-03-29T05:13:42.435Z,44.27
2019-03-29T05:16:32.750Z,45.80
2019-03-29T05:19:23.055Z,43.70
2019-03-29T05:22:13.408Z,46.70
2019-03-29T05:25:03.716Z,47.87
2019-03-29T05:27:54.092Z,45.73
2019-03-29T05:30:25.106Z,42.47
2019-03-29T05:33:15.424Z,49.60
2019-03-29T05:36:05.718Z,41.73
2019-03-29T05:38:56.989Z,48.80
2019-03-29T05:41:47.300Z,43.50
2019-03-29T05:44:40.685Z,40.93
2019-03-29T05:50:27.758Z,43.97
2019-03-29T05:53:18.079Z,50.27
2019-03-29T05:55:49.039Z,44.80
2019-03-29T05:58:39.356Z,47.27
2019-03-29T06:01:29.687Z,44.90
2019-03-29T06:04:20.080Z,46.77
2019-03-29T06:07:10.413Z,44.30
2019-03-29T06:10:00.897Z,45.40
2019-03-29T06:12:51.202Z,42.53
2019-03-29T06:15:41.580Z,42.30
2019-03-29T06:18:31.867Z,43.53
2019-03-29T06:21:22.225Z,45.00
2019-03-29T06:24:12.553Z,44.13
2019-03-29T06:27:02.888Z,42.27
2019-03-29T06:29:53.198Z,47.80
2019-03-29T06:32:43.607Z,42.55
2019-03-29T06:41:43.292Z,41.70
2019-03-29T06:44:33.627Z,38.73
2019-03-29T06:47:23.952Z,37.47
2019-03-29T06:50:14.381Z,35.90
2019-03-29T06:53:04.722Z,38.93
2019-03-29T06:55:55.034Z,41.27
2019-03-29T06:58:45.406Z,39.97
2019-03-29T07:01:35.719Z,34.50
2019-03-29T07:04:26.071Z,35.60
2019-03-29T07:07:16.424Z,34.83
2019-03-29T07:13:04.041Z,33.63
2019-03-29T07:15:54.343Z,36.43
2019-03-29T07:18:25.297Z,36.27
2019-03-29T07:21:21.285Z,34.20
2019-03-29T07:23:53.746Z,38.00
2019-03-29T07:26:44.084Z,36.47
2019-03-29T07:29:34.419Z,38.30
2019-03-29T07:32:24.743Z,38.20
2019-03-29T07:35:15.074Z,38.70
2019-03-29T07:38:05.389Z,34.77
2019-03-29T07:40:55.735Z,39.10
2019-03-29T07:43:46.054Z,38.07
2019-03-29T07:46:36.399Z,41.70
2019-03-29T07:49:26.721Z,38.87
2019-03-29T07:52:17.489Z,36.83
2019-03-29T07:58:42.902Z,36.13
2019-03-29T08:01:33.348Z,43.73
2019-03-29T08:04:24.220Z,39.57
2019-03-29T08:07:07.187Z,37.83
2019-03-29T08:09:57.564Z,40.10
2019-03-29T08:12:49.299Z,40.13
2019-03-29T08:15:31.671Z,39.57
2019-03-29T08:18:22.070Z,35.90
2019-03-29T08:21:12.426Z,38.30
2019-03-29T08:24:02.844Z,39.50
2019-03-29T08:26:53.211Z,38.03
2019-03-29T08:29:43.628Z,38.90
2019-03-29T08:32:14.661Z,42.00
2019-03-29T08:35:05.122Z,42.77
2019-03-29T08:37:55.500Z,40.50
2019-03-29T08:40:45.871Z,40.97
2019-03-29T08:43:36.191Z,36.67
2019-03-29T08:46:26.551Z,38.03
2019-03-29T08:49:17.301Z,39.00
2019-03-29T08:52:00.352Z,41.43
2019-03-29T08:54:51.354Z,37.60
2019-03-29T08:57:42.732Z,35.60
2019-03-29T09:04:08.115Z,35.63
2019-03-29T09:06:58.465Z,33.87
2019-03-29T09:09:49.009Z,35.20
2019-03-29T09:12:39.334Z,33.43
2019-03-29T09:15:29.708Z,36.73
2019-03-29T09:18:20.019Z,34.30
2019-03-29T09:21:10.429Z,33.93
2019-03-29T09:24:00.732Z,32.33
2019-03-29T09:26:51.073Z,32.00
2019-03-29T09:29:22.011Z,32.13
2019-03-29T09:32:12.384Z,32.30
2019-03-29T09:35:02.702Z,17.40
2019-03-29T09:37:56.375Z,18.70
2019-03-29T09:40:56.203Z,21.83
2019-03-29T09:43:28.670Z,24.10
2019-03-29T09:46:19.011Z,17.83
2019-03-29T09:49:09.362Z,19.30
2019-03-29T09:51:59.743Z,19.73
2019-03-29T09:54:50.038Z,20.73
2019-03-29T09:57:40.363Z,20.77
2019-03-29T10:00:30.727Z,22.57
2019-03-29T10:03:21.115Z,14.47
2019-03-29T10:06:11.488Z,16.10
2019-03-29T10:08:53.024Z,16.83
2019-03-29T10:11:36.215Z,11.50
2019-03-29T10:14:26.592Z,16.20
2019-03-29T10:17:16.960Z,15.37
2019-03-29T10:20:07.448Z,15.70
2019-03-29T10:22:57.878Z,14.10
2019-03-29T10:25:48.214Z,19.17
2019-03-29T10:28:38.560Z,15.50
2019-03-29T10:31:32.337Z,16.20
2019-03-29T10:34:12.723Z,16.70
2019-03-29T10:37:03.046Z,14.13
2019-03-29T10:39:53.411Z,15.40
2019-03-29T10:42:56.965Z,15.10
2019-03-29T10:45:39.864Z,21.03
2019-03-29T10:48:19.632Z,15.63
2019-03-29T10:51:10.008Z,16.80
2019-03-29T10:54:00.311Z,34.43
2019-03-29T10:56:34.427Z,16.43
2019-03-29T10:59:27.581Z,15.03
2019-03-29T11:02:07.101Z,16.93
2019-03-29T11:04:57.431Z,14.80
2019-03-29T11:07:28.558Z,14.73
2019-03-29T11:13:28.450Z,13.57
2019-03-29T11:15:59.447Z,13.10
2019-03-29T11:18:49.813Z,15.33
2019-03-29T11:21:20.835Z,14.07
2019-03-29T11:24:11.188Z,13.90
2019-03-29T11:27:01.522Z,12.80
2019-03-29T11:29:51.869Z,13.67
2019-03-29T11:32:22.769Z,13.40
2019-03-29T11:35:13.097Z,11.80
2019-03-29T11:38:03.874Z,13.37
2019-03-29T11:40:54.241Z,13.23
2019-03-29T11:43:27.033Z,13.20
2019-03-29T11:46:09.290Z,15.17
2019-03-29T11:48:59.639Z,11.13
2019-03-29T11:51:50.001Z,11.67
2019-03-29T11:54:40.386Z,11.73
2019-03-29T11:57:30.767Z,11.90
2019-03-29T12:00:01.702Z,12.80
2019-03-29T12:02:52.123Z,12.83
2019-03-29T12:05:42.473Z,13.50
2019-03-29T12:08:32.826Z,16.70
2019-03-29T12:11:23.178Z,14.43
2019-03-29T12:14:13.550Z,14.97
2019-03-29T12:17:03.876Z,12.93
2019-03-29T12:19:54.229Z,12.87
2019-03-29T12:22:25.365Z,13.67
2019-03-29T12:25:15.706Z,15.23
2019-03-29T12:27:46.679Z,14.20
2019-03-29T12:30:37.122Z,13.33
2019-03-29T12:33:27.457Z,15.27
2019-03-29T12:36:17.882Z,13.53
2019-03-29T12:39:08.647Z,17.00
2019-03-29T12:41:58.964Z,12.90
2019-03-29T12:44:49.269Z,11.67
2019-03-29T12:47:39.691Z,13.73
2019-03-29T12:53:27.236Z,15.13
2019-03-29T12:56:17.575Z,13.57
2019-03-29T12:59:07.913Z,13.37
2019-03-29T13:01:58.226Z,13.10
2019-03-29T13:04:48.576Z,13.43
2019-03-29T13:07:19.811Z,13.03
2019-03-29T13:09:52.822Z,14.47
2019-03-29T13:12:25.225Z,12.90
2019-03-29T13:14:59.440Z,13.70
2019-03-29T13:17:31.959Z,13.83
2019-03-29T13:20:05.285Z,13.13
2019-03-29T13:22:36.927Z,16.60
2019-03-29T13:25:08.107Z,12.33
2019-03-29T13:27:40.947Z,13.97
2019-03-29T13:30:12.116Z,13.90
2019-03-29T13:32:44.185Z,13.13
2019-03-29T13:35:18.106Z,12.10
2019-03-29T13:37:50.130Z,12.13
2019-03-29T13:40:23.157Z,12.13
2019-03-29T13:42:56.103Z,12.63
2019-03-29T13:45:29.105Z,12.43
2019-03-29T13:48:00.319Z,13.47
2019-03-29T13:50:32.130Z,13.73
2019-03-29T13:53:05.141Z,13.20
2019-03-29T13:55:38.076Z,12.07
2019-03-29T13:58:11.083Z,12.97
2019-03-29T14:00:44.081Z,12.90
2019-03-29T14:03:17.175Z,11.50
2019-03-29T14:05:50.171Z,12.13
2019-03-29T14:08:23.139Z,14.20
2019-03-29T14:10:56.193Z,12.93
2019-03-29T14:13:29.131Z,16.07
2019-03-29T14:16:02.290Z,12.77
2019-03-29T14:18:35.285Z,11.63
2019-03-29T14:21:07.185Z,11.27
2019-03-29T14:23:40.217Z,11.37
2019-03-29T14:26:11.175Z,11.07
2019-03-29T14:28:44.162Z,13.07
2019-03-29T14:31:16.991Z,12.63
2019-03-29T14:33:50.338Z,12.13
2019-03-29T14:36:23.328Z,11.80
2019-03-29T14:38:56.203Z,13.00
2019-03-29T14:41:27.312Z,11.70
2019-03-29T14:43:59.433Z,10.87
2019-03-29T14:46:32.363Z,12.13
2019-03-29T14:49:05.394Z,10.80
2019-03-29T14:51:38.285Z,10.70
2019-03-29T14:54:10.341Z,9.63
2019-03-29T14:56:43.489Z,10.50
2019-03-29T14:59:16.298Z,10.03
2019-03-29T15:01:48.422Z,11.53
2019-03-29T15:04:19.391Z,10.60
2019-03-29T15:06:52.554Z,11.00
2019-03-29T15:09:24.579Z,11.17
2019-03-29T15:11:56.525Z,12.27
2019-03-29T15:14:28.404Z,10.17
2019-03-29T15:17:01.509Z,10.10
2019-03-29T15:19:34.353Z,11.40
2019-03-29T15:22:07.512Z,11.47
2019-03-29T15:24:40.445Z,11.43
2019-03-29T15:27:13.461Z,11.33
2019-03-29T15:29:46.548Z,10.23
2019-03-29T15:32:19.552Z,10.80
2019-03-29T15:34:52.617Z,11.13
2019-03-29T15:37:25.455Z,11.40
2019-03-29T15:39:58.639Z,10.80
2019-03-29T15:42:31.481Z,15.30
2019-03-29T15:45:04.644Z,9.37
2019-03-29T15:47:40.258Z,8.93
2019-03-29T15:50:10.649Z,9.70
2019-03-29T15:52:43.614Z,10.43
2019-03-29T15:55:15.603Z,9.03
2019-03-29T15:57:46.738Z,9.73
2019-03-29T16:00:17.747Z,9.83
2019-03-29T16:02:49.773Z,9.90
2019-03-29T16:05:22.745Z,9.67
2019-03-29T16:07:57.019Z,9.30
2019-03-29T16:10:28.743Z,13.10
2019-03-29T16:12:59.755Z,9.33
2019-03-29T16:15:36.324Z,10.13
2019-03-29T16:18:04.820Z,8.90
2019-03-29T16:20:36.042Z,10.33
2019-03-29T16:23:10.367Z,11.37
2019-03-29T16:25:44.085Z,11.63
2019-03-29T16:28:18.016Z,11.00
2019-03-29T16:30:49.723Z,10.23
2019-03-29T16:33:22.727Z,12.00
2019-03-29T16:35:53.852Z,14.07
2019-03-29T16:38:25.623Z,11.30
2019-03-29T16:40:58.805Z,11.60
2019-03-29T16:43:31.819Z,13.30
2019-03-29T16:46:05.861Z,13.07
2019-03-29T16:48:37.881Z,11.83
2019-03-29T16:51:08.838Z,11.90
2019-03-29T16:53:41.909Z,12.90
2019-03-29T16:56:13.916Z,16.43
2019-03-29T16:58:46.911Z,15.73
2019-03-29T17:01:19.844Z,13.77
2019-03-29T17:03:52.850Z,13.90
2019-03-29T17:06:23.884Z,18.50
2019-03-29T17:08:55.971Z,13.10
2019-03-29T17:11:29.023Z,13.33
2019-03-29T17:14:02.044Z,13.00
2019-03-29T17:16:34.895Z,15.70
2019-03-29T17:19:07.623Z,14.87
2019-03-29T17:21:39.611Z,14.53
2019-03-29T17:24:12.042Z,15.27
2019-03-29T17:26:47.162Z,17.37
2019-03-29T17:29:18.181Z,14.37
2019-03-29T17:31:54.611Z,15.10
2019-03-29T17:34:25.746Z,14.80
2019-03-29T17:36:58.701Z,14.70
2019-03-29T17:39:32.186Z,19.63
2019-03-29T17:42:05.264Z,17.43
2019-03-29T17:44:38.250Z,19.80
2019-03-29T17:47:11.122Z,21.57
2019-03-29T17:49:44.170Z,18.13
2019-03-29T17:52:17.147Z,16.83
2019-03-29T17:54:50.261Z,17.50
2019-03-29T17:57:23.128Z,16.03
2019-03-29T17:59:54.384Z,17.13
2019-03-29T18:02:25.712Z,21.23
2019-03-29T18:04:59.173Z,20.10
2019-03-29T18:07:32.115Z,17.07
2019-03-29T18:10:06.064Z,19.60
2019-03-29T18:12:39.220Z,21.40
2019-03-29T18:15:11.502Z,20.63
2019-03-29T18:17:44.237Z,18.20
2019-03-29T18:20:17.502Z,17.30
2019-03-29T18:22:50.340Z,20.07
2019-03-29T18:25:23.334Z,19.17
2019-03-29T18:27:56.302Z,25.27
2019-03-29T18:30:39.258Z,19.17
2019-03-29T18:33:11.326Z,26.17
2019-03-29T18:35:44.419Z,19.10
2019-03-29T18:38:17.422Z,19.40
2019-03-29T18:40:50.397Z,23.70
2019-03-29T18:43:23.401Z,19.57
2019-03-29T18:45:56.474Z,21.27
2019-03-29T18:48:29.330Z,22.13
2019-03-29T18:51:02.481Z,22.17
2019-03-29T18:53:35.517Z,23.87
2019-03-29T18:56:08.421Z,22.47
2019-03-29T18:58:41.554Z,22.63
2019-03-29T19:01:14.363Z,22.63
2019-03-29T19:03:47.434Z,21.90
2019-03-29T19:06:19.470Z,23.80
2019-03-29T19:08:50.577Z,28.97
2019-03-29T19:11:23.574Z,25.40
2019-03-29T19:13:56.551Z,31.57
2019-03-29T19:16:29.664Z,27.93
2019-03-29T19:19:09.961Z,27.40
2019-03-29T19:21:35.580Z,31.70
2019-03-29T19:24:08.498Z,26.80
2019-03-29T19:26:41.505Z,29.57
2019-03-29T19:29:14.580Z,25.83
2019-03-29T19:31:47.561Z,26.40
2019-03-29T19:34:20.633Z,25.60
2019-03-29T19:36:53.645Z,29.10
2019-03-29T19:39:25.969Z,26.00
2019-03-29T19:41:58.562Z,25.10
2019-03-29T19:44:29.634Z,24.43
2019-03-29T19:47:13.494Z,23.30
2019-03-29T19:49:36.834Z,29.20
2019-03-29T19:52:08.771Z,23.40
2019-03-29T19:54:41.660Z,23.70
2019-03-29T19:57:14.821Z,23.47
2019-03-29T19:59:48.259Z,27.03
2019-03-29T20:02:19.787Z,20.77
2019-03-29T20:04:51.277Z,25.90
2019-03-29T20:07:23.665Z,27.80
2019-03-29T20:09:55.726Z,27.37
2019-03-29T20:12:26.984Z,22.93
2019-03-29T20:14:59.808Z,26.73
2019-03-29T20:17:32.756Z,28.27
2019-03-29T20:20:06.344Z,30.83
2019-03-29T20:22:40.446Z,30.37
2019-03-29T20:25:11.806Z,30.87
2019-03-29T20:27:43.791Z,28.80
2019-03-29T20:30:15.831Z,25.13
2019-03-29T20:32:48.335Z,26.13
2019-03-29T20:35:19.917Z,26.10
2019-03-29T20:37:52.903Z,22.63
2019-03-29T20:40:26.109Z,32.13
2019-03-29T20:42:58.951Z,23.53
2019-03-29T20:45:30.009Z,22.00
2019-03-29T20:48:01.919Z,21.97
2019-03-29T20:50:34.965Z,22.63
2019-03-29T20:53:08.063Z,20.83
2019-03-29T20:55:42.873Z,20.97
2019-03-29T20:58:14.346Z,20.93
2019-03-29T21:00:46.979Z,23.60
2019-03-29T21:03:20.044Z,20.67
2019-03-29T21:05:53.066Z,19.60
2019-03-29T21:08:25.861Z,21.57
2019-03-29T21:10:59.044Z,16.87
2019-03-29T21:13:32.046Z,21.60
2019-03-29T21:16:05.122Z,17.87
2019-03-29T21:18:38.112Z,20.07
2019-03-29T21:21:11.073Z,20.50
2019-03-29T21:23:47.124Z,17.17
2019-03-29T21:26:17.168Z,18.50
2019-03-29T21:28:52.743Z,22.40
2019-03-29T21:31:25.185Z,16.73
2019-03-29T21:33:56.149Z,17.83
2019-03-29T21:36:29.200Z,17.90
2019-03-29T21:39:02.128Z,18.53
2019-03-29T21:41:35.133Z,20.33
2019-03-29T21:44:07.160Z,18.50
2019-03-29T21:46:39.097Z,19.17
2019-03-29T21:49:10.262Z,18.93
2019-03-29T21:51:44.201Z,23.53
2019-03-29T21:54:18.222Z,19.17
2019-03-29T21:56:50.225Z,18.90
2019-03-29T21:59:25.109Z,18.40
2019-03-29T22:01:58.004Z,19.63
2019-03-29T22:04:30.212Z,22.83
2019-03-29T22:07:02.233Z,18.93
2019-03-29T22:09:37.181Z,20.67
2019-03-29T22:12:08.395Z,17.67
2019-03-29T22:14:41.418Z,19.83
2019-03-29T22:17:14.249Z,18.90
2019-03-29T22:19:47.298Z,20.23
2019-03-29T22:22:20.259Z,18.23
2019-03-29T22:24:53.464Z,17.77
2019-03-29T22:27:26.329Z,19.33
2019-03-29T22:29:59.169Z,18.07
2019-03-29T22:32:32.399Z,18.40
2019-03-29T22:35:05.030Z,21.77
2019-03-29T22:37:38.473Z,23.13
2019-03-29T22:40:11.494Z,22.23
2019-03-29T22:42:42.611Z,21.37
2019-03-29T22:45:14.569Z,23.50
2019-03-29T22:47:46.362Z,19.93
2019-03-29T22:50:17.407Z,22.27
2019-03-29T22:52:50.514Z,20.40
2019-03-29T22:55:23.508Z,21.90
2019-03-29T22:57:55.421Z,21.40
2019-03-29T23:00:36.507Z,18.97
2019-03-29T23:03:10.388Z,19.27
2019-03-29T23:05:41.582Z,19.40
2019-03-29T23:08:12.487Z,19.50
2019-03-29T23:10:43.596Z,20.20
2019-03-29T23:13:15.416Z,17.83
2019-03-29T23:15:46.530Z,23.90
2019-03-29T23:18:18.529Z,21.77
2019-03-29T23:20:51.668Z,18.80
2019-03-29T23:23:23.611Z,19.50
2019-03-29T23:25:56.620Z,20.10
2019-03-29T23:28:29.641Z,19.00
2019-03-29T23:31:05.490Z,19.30
2019-03-29T23:33:35.556Z,18.60
2019-03-29T23:36:06.704Z,21.83
2019-03-29T23:38:38.601Z,20.13
2019-03-29T23:41:11.691Z,18.43
2019-03-29T23:43:42.612Z,18.70
2019-03-29T23:46:14.765Z,21.77
2019-03-29T23:48:47.637Z,19.70
2019-03-29T23:51:20.633Z,19.77
2019-03-29T23:53:54.369Z,19.47
2019-03-29T23:56:26.145Z,19.67
2019-03-29T23:58:59.957Z,21.60
